WetterOnline ( http://www.wetteronline.de )

Wetter aktuell Schwerin

Aktuelles Wetter: Boltenhagen (17m)

6-stündlich | Neueste Meldungen
Ortszeit Temperatur Wetter
Di, 11.12. 1:00 4.8° C fast wolkenlos
Mo, 10.12. 19:00 5.3° C wolkig
Mo, 10.12. 13:00 5.7° C leicht bewölkt
Mo, 10.12. 7:00 4.8° C wolkig
Mo, 10.12. 1:00 5.3° C wolkig
So, 09.12. 19:00 7.2° C bedeckt
So, 09.12. 13:00 7.5° C wolkig
So, 09.12. 7:00 6.1° C bedeckt
Ortszeit Temperatur Wetter
Di, 11.12. 1:10 4.7° C wolkenlos
Di, 11.12. 1:00 4.8° C fast wolkenlos
Di, 11.12. 0:40 4.7° C leicht bewölkt
Di, 11.12. 0:30 4.6° C bewölkt
Di, 11.12. 0:20 4.6° C bewölkt
Di, 11.12. 0:10 4.7° C wolkig
Di, 11.12. 0:00 4.7° C bedeckt
Mo, 10.12. 23:30 4.7° C bewölkt
Mo, 10.12. 23:00 4.6° C leicht bewölkt
Mo, 10.12. 22:30 4.7° C leicht bewölkt
Mo, 10.12. 22:00 4.7° C wolkenlos
Ortszeit Relative Feuchte Sichtweite
Di, 11.12. 1:00 79% 29 km
Mo, 10.12. 19:00 79% 29 km
Mo, 10.12. 13:00 74% 11 km
Mo, 10.12. 7:00 74% 30 km
Mo, 10.12. 1:00 78% 25 km
So, 09.12. 19:00 76% 23 km
So, 09.12. 13:00 85% 35 km
So, 09.12. 7:00 90% 30 km
Ortszeit Relative Feuchte Sichtweite
Di, 11.12. 1:10 80% -
Di, 11.12. 1:00 79% 29 km
Di, 11.12. 0:40 81% -
Di, 11.12. 0:30 81% 30 km
Di, 11.12. 0:20 81% -
Di, 11.12. 0:10 81% -
Di, 11.12. 0:00 80% 29 km
Mo, 10.12. 23:30 80% 30 km
Mo, 10.12. 23:00 81% 30 km
Mo, 10.12. 22:30 81% 30 km
Mo, 10.12. 22:00 81% 29 km
Ortszeit Niederschlagsmenge Niederschlagsart
Di, 11.12. 1:00 0.0 l/m2 in 6 Std. -
Mo, 10.12. 19:00 0.1 l/m2 in 12 Std. Regen
Mo, 10.12. 13:00 0.1 l/m2 in 6 Std. Regen
Mo, 10.12. 7:00 0.0 l/m2 in 12 Std. -
Mo, 10.12. 1:00 0.0 l/m2 in 6 Std. -
So, 09.12. 19:00 3 l/m2 in 12 Std. Regen
So, 09.12. 13:00 0.6 l/m2 in 6 Std. Regen
So, 09.12. 7:00 8 l/m2 in 12 Std. Regen
Ortszeit Niederschlagsmenge Niederschlagsart
Di, 11.12. 1:10 keine Meldung -
Di, 11.12. 1:00 0.0 l/m2 in 1 Std. -
Di, 11.12. 0:40 keine Meldung -
Di, 11.12. 0:30 0.0 l/m2 in 1 Std. -
Di, 11.12. 0:20 keine Meldung -
Di, 11.12. 0:10 keine Meldung -
Di, 11.12. 0:00 0.0 l/m2 in 1 Std. -
Mo, 10.12. 23:30 0.0 l/m2 in 1 Std. -
Mo, 10.12. 23:00 0.0 l/m2 in 1 Std. -
Mo, 10.12. 22:30 0.0 l/m2 in 1 Std. -
Mo, 10.12. 22:00 0.0 l/m2 in 1 Std. -
Ortszeit Stärke Spitze Richtung
km/h Bft. km/h Grad Sektor
Di, 11.12. 1:00 29 5 47 290° W
Mo, 10.12. 19:00 30 5 61 290° W
Mo, 10.12. 13:00 41 6 69 260° W
Mo, 10.12. 7:00 36 5 58 260° W
Mo, 10.12. 1:00 33 5 59 270° W
So, 09.12. 19:00 43 6 61 270° W
So, 09.12. 13:00 25 4 50 240° SW
So, 09.12. 7:00 28 4 43 240° SW
Ortszeit Stärke Spitze Richtung
km/h Bft. km/h Grad Sektor
Di, 11.12. 1:10 31 5 - 290° W
Di, 11.12. 1:00 29 5 47 290° W
Di, 11.12. 0:40 30 5 - 290° W
Di, 11.12. 0:30 31 5 44 280° W
Di, 11.12. 0:20 31 5 - 280° W
Di, 11.12. 0:10 30 5 - 280° W
Di, 11.12. 0:00 29 5 43 280° W
Mo, 10.12. 23:30 30 5 44 280° W
Mo, 10.12. 23:00 30 5 44 280° W
Mo, 10.12. 22:30 29 5 43 290° W
Mo, 10.12. 22:00 28 4 43 280° W
Ortszeit Untergrenze Bedeckung Gattung
total tief tief mittel hoch
Di, 11.12. 1:00 5400 m 1/8 1/8 - - -
Mo, 10.12. 19:00 660 m 5/8 5/8 - - -
Mo, 10.12. 13:00 5100 m 2/8 3/8 - - -
Mo, 10.12. 7:00 1350 m 6/8 6/8 - - -
Mo, 10.12. 1:00 1500 m 7/8 1/8 - - -
So, 09.12. 19:00 780 m 8/8 8/8 - - -
So, 09.12. 13:00 390 m 6/8 2/8 - - -
So, 09.12. 7:00 1140 m 8/8 8/8 - - -
Ortszeit Bedeckungsgrad in Achtel und Wolkenuntergrenze
Di, 11.12. 1:10 keine Wolken
Di, 11.12. 1:00 1(5400m)
Di, 11.12. 0:40 2(4800m) 3(5400m)
Di, 11.12. 0:30 1(4200m) 7(4800m)
Di, 11.12. 0:20 1(4200m) 7(4800m)
Di, 11.12. 0:10 3(4200m) 6(4800m)
Di, 11.12. 0:00 8(4200m)
Mo, 10.12. 23:30 7(3900m)
Mo, 10.12. 23:00 3(3600m)
Mo, 10.12. 22:30 4(3900m)
Mo, 10.12. 22:00 2(3600m)
Ortszeit Luftdruck NN (hPa) Tendenz (hPa in 3 Std.)
Di, 11.12. 1:00 1011 + 0,9
Mo, 10.12. 19:00 1009 + 0,6
Mo, 10.12. 13:00 1008 + 0,2
Mo, 10.12. 7:00 1007 + 2,0
Mo, 10.12. 1:00 1002 + 2,8
So, 09.12. 19:00 994 + 3,4
So, 09.12. 13:00 989 + 1,4
So, 09.12. 7:00 985 + 1,6
Ortszeit Luftdruck NN (hPa) Tendenz (hPa in 3 Std.)
Di, 11.12. 1:10 1011 keine Meldung
Di, 11.12. 1:00 1011 + 0,9
Di, 11.12. 0:40 1011 keine Meldung
Di, 11.12. 0:30 1011 + 1,0
Di, 11.12. 0:20 1011 keine Meldung
Di, 11.12. 0:10 1011 keine Meldung
Di, 11.12. 0:00 1010 + 0,9
Mo, 10.12. 23:30 1010 + 1,0
Mo, 10.12. 23:00 1010 + 1,1
Mo, 10.12. 22:30 1010 + 1,2
Mo, 10.12. 22:00 1010 + 1,3
Ortszeit Schneehöhe (cm)
Di, 11.12. 1:00 0
Mo, 10.12. 19:00 0
Mo, 10.12. 13:00 0
Mo, 10.12. 7:00 0
Mo, 10.12. 1:00 0
So, 09.12. 19:00 0
So, 09.12. 13:00 0
So, 09.12. 7:00 0
Ortszeit Schneehöhe (cm)
Di, 11.12. 1:10 0
Di, 11.12. 1:00 0
Di, 11.12. 0:40 0
Di, 11.12. 0:30 0
Di, 11.12. 0:20 0
Di, 11.12. 0:10 0
Di, 11.12. 0:00 0
Mo, 10.12. 23:30 0
Mo, 10.12. 23:00 0
Mo, 10.12. 22:30 0
Mo, 10.12. 22:00 0
Link zu dieser Seite / Seite empfehlen

Das Wetter in ...